sensor_id;sensor_type;location;lat;lon;timestamp;P1;durP1;ratioP1;P2;durP2;ratioP2
53287;SDS011;39172;45.550;12.072;2023-05-15T00:03:20;1.08;;;0.90;;
53287;SDS011;39172;45.550;12.072;2023-05-15T00:09:26;0.93;;;0.82;;
53287;SDS011;39172;45.550;12.072;2023-05-15T00:15:27;1.17;;;1.08;;
53287;SDS011;39172;45.550;12.072;2023-05-15T00:21:28;1.70;;;1.40;;
53287;SDS011;39172;45.550;12.072;2023-05-15T00:27:30;1.73;;;1.30;;
53287;SDS011;39172;45.550;12.072;2023-05-15T00:33:31;0.98;;;0.90;;
53287;SDS011;39172;45.550;12.072;2023-05-15T00:39:32;1.20;;;1.00;;
53287;SDS011;39172;45.550;12.072;2023-05-15T00:45:33;0.90;;;0.80;;
53287;SDS011;39172;45.550;12.072;2023-05-15T00:51:35;1.08;;;0.98;;
53287;SDS011;39172;45.550;12.072;2023-05-15T00:57:36;1.00;;;0.90;;
53287;SDS011;39172;45.550;12.072;2023-05-15T01:03:38;0.93;;;0.90;;
53287;SDS011;39172;45.550;12.072;2023-05-15T01:09:40;0.98;;;0.88;;
53287;SDS011;39172;45.550;12.072;2023-05-15T01:15:43;0.70;;;0.70;;
53287;SDS011;39172;45.550;12.072;2023-05-15T01:21:56;1.10;;;1.00;;
53287;SDS011;39172;45.550;12.072;2023-05-15T01:28:04;1.43;;;1.33;;
53287;SDS011;39172;45.550;12.072;2023-05-15T01:34:07;2.35;;;1.92;;
53287;SDS011;39172;45.550;12.072;2023-05-15T01:40:09;2.03;;;1.83;;
53287;SDS011;39172;45.550;12.072;2023-05-15T01:46:12;1.92;;;1.73;;
53287;SDS011;39172;45.550;12.072;2023-05-15T01:52:22;1.40;;;1.30;;
53287;SDS011;39172;45.550;12.072;2023-05-15T01:58:25;1.40;;;1.30;;
53287;SDS011;39172;45.550;12.072;2023-05-15T02:04:26;2.17;;;1.98;;
53287;SDS011;39172;45.550;12.072;2023-05-15T02:10:27;1.00;;;0.90;;
53287;SDS011;39172;45.550;12.072;2023-05-15T02:16:28;0.75;;;0.70;;
53287;SDS011;39172;45.550;12.072;2023-05-15T02:22:30;1.00;;;0.90;;
53287;SDS011;39172;45.550;12.072;2023-05-15T02:28:40;1.10;;;1.00;;
53287;SDS011;39172;45.550;12.072;2023-05-15T02:40:44;1.40;;;1.30;;
53287;SDS011;39172;45.550;12.072;2023-05-15T02:46:47;1.50;;;1.40;;
53287;SDS011;39172;45.550;12.072;2023-05-15T02:52:48;2.10;;;1.90;;
53287;SDS011;39172;45.550;12.072;2023-05-15T02:58:49;3.00;;;2.70;;
53287;SDS011;39172;45.550;12.072;2023-05-15T03:04:50;2.70;;;2.50;;
53287;SDS011;39172;45.550;12.072;2023-05-15T03:10:51;2.47;;;2.28;;
53287;SDS011;39172;45.550;12.072;2023-05-15T03:16:52;2.38;;;2.17;;
53287;SDS011;39172;45.550;12.072;2023-05-15T03:22:56;2.80;;;2.60;;
53287;SDS011;39172;45.550;12.072;2023-05-15T03:28:57;2.28;;;2.08;;
53287;SDS011;39172;45.550;12.072;2023-05-15T03:34:58;2.40;;;2.20;;
53287;SDS011;39172;45.550;12.072;2023-05-15T03:40:59;2.10;;;1.90;;
53287;SDS011;39172;45.550;12.072;2023-05-15T03:47:00;1.50;;;1.40;;
53287;SDS011;39172;45.550;12.072;2023-05-15T03:53:01;2.05;;;1.70;;
53287;SDS011;39172;45.550;12.072;2023-05-15T03:59:05;2.65;;;2.45;;
53287;SDS011;39172;45.550;12.072;2023-05-15T04:05:10;3.08;;;2.78;;
53287;SDS011;39172;45.550;12.072;2023-05-15T04:11:14;3.50;;;3.20;;
53287;SDS011;39172;45.550;12.072;2023-05-15T04:17:16;3.55;;;2.80;;
53287;SDS011;39172;45.550;12.072;2023-05-15T04:23:17;3.30;;;2.95;;
53287;SDS011;39172;45.550;12.072;2023-05-15T04:29:22;3.20;;;2.90;;
53287;SDS011;39172;45.550;12.072;2023-05-15T04:35:25;3.80;;;3.50;;
53287;SDS011;39172;45.550;12.072;2023-05-15T04:41:26;4.00;;;3.60;;
53287;SDS011;39172;45.550;12.072;2023-05-15T04:47:28;3.33;;;3.03;;
53287;SDS011;39172;45.550;12.072;2023-05-15T04:53:29;3.15;;;2.83;;
53287;SDS011;39172;45.550;12.072;2023-05-15T04:59:29;2.65;;;2.45;;
53287;SDS011;39172;45.550;12.072;2023-05-15T05:05:33;5.57;;;5.07;;
53287;SDS011;39172;45.550;12.072;2023-05-15T05:11:39;5.93;;;5.43;;
53287;SDS011;39172;45.550;12.072;2023-05-15T05:17:44;5.20;;;4.70;;
53287;SDS011;39172;45.550;12.072;2023-05-15T05:23:45;3.05;;;2.75;;
53287;SDS011;39172;45.550;12.072;2023-05-15T05:29:49;3.00;;;2.70;;
53287;SDS011;39172;45.550;12.072;2023-05-15T05:35:50;2.28;;;2.08;;
53287;SDS011;39172;45.550;12.072;2023-05-15T05:41:54;2.33;;;2.13;;
53287;SDS011;39172;45.550;12.072;2023-05-15T05:47:55;2.10;;;1.90;;
53287;SDS011;39172;45.550;12.072;2023-05-15T05:53:57;3.55;;;2.25;;
53287;SDS011;39172;45.550;12.072;2023-05-15T05:59:58;2.53;;;2.33;;
53287;SDS011;39172;45.550;12.072;2023-05-15T06:05:59;2.20;;;2.00;;
53287;SDS011;39172;45.550;12.072;2023-05-15T06:12:00;2.33;;;2.13;;
53287;SDS011;39172;45.550;12.072;2023-05-15T06:18:04;2.65;;;2.28;;
53287;SDS011;39172;45.550;12.072;2023-05-15T06:24:05;2.67;;;2.47;;
53287;SDS011;39172;45.550;12.072;2023-05-15T06:30:08;2.33;;;2.13;;
53287;SDS011;39172;45.550;12.072;2023-05-15T06:36:09;2.20;;;2.00;;
53287;SDS011;39172;45.550;12.072;2023-05-15T06:42:10;2.10;;;1.90;;
53287;SDS011;39172;45.550;12.072;2023-05-15T06:48:18;3.00;;;2.70;;
53287;SDS011;39172;45.550;12.072;2023-05-15T06:54:19;2.05;;;1.77;;
53287;SDS011;39172;45.550;12.072;2023-05-15T07:00:20;2.42;;;2.00;;
53287;SDS011;39172;45.550;12.072;2023-05-15T07:06:21;2.17;;;1.83;;
53287;SDS011;39172;45.550;12.072;2023-05-15T07:12:22;2.08;;;1.67;;
53287;SDS011;39172;45.550;12.072;2023-05-15T07:18:24;2.83;;;2.05;;
53287;SDS011;39172;45.550;12.072;2023-05-15T07:24:26;1.77;;;1.67;;
53287;SDS011;39172;45.550;12.072;2023-05-15T07:30:27;1.60;;;1.50;;
53287;SDS011;39172;45.550;12.072;2023-05-15T07:36:28;2.10;;;1.90;;
53287;SDS011;39172;45.550;12.072;2023-05-15T07:42:29;2.28;;;2.08;;
53287;SDS011;39172;45.550;12.072;2023-05-15T07:48:31;3.00;;;2.20;;
53287;SDS011;39172;45.550;12.072;2023-05-15T07:54:35;5.15;;;4.65;;
53287;SDS011;39172;45.550;12.072;2023-05-15T08:00:36;3.65;;;3.25;;
53287;SDS011;39172;45.550;12.072;2023-05-15T08:06:37;4.47;;;3.92;;
53287;SDS011;39172;45.550;12.072;2023-05-15T08:12:39;6.93;;;6.20;;
53287;SDS011;39172;45.550;12.072;2023-05-15T08:18:46;7.03;;;6.03;;
53287;SDS011;39172;45.550;12.072;2023-05-15T08:24:50;8.63;;;6.25;;
53287;SDS011;39172;45.550;12.072;2023-05-15T08:30:51;7.25;;;6.05;;
53287;SDS011;39172;45.550;12.072;2023-05-15T08:36:52;8.30;;;6.50;;
53287;SDS011;39172;45.550;12.072;2023-05-15T08:42:54;6.70;;;5.28;;
53287;SDS011;39172;45.550;12.072;2023-05-15T08:48:55;6.55;;;5.35;;
53287;SDS011;39172;45.550;12.072;2023-05-15T08:54:57;4.72;;;4.22;;
53287;SDS011;39172;45.550;12.072;2023-05-15T09:00:58;6.07;;;4.30;;
53287;SDS011;39172;45.550;12.072;2023-05-15T09:07:15;6.07;;;4.60;;
53287;SDS011;39172;45.550;12.072;2023-05-15T09:13:16;7.00;;;4.00;;
53287;SDS011;39172;45.550;12.072;2023-05-15T09:19:20;4.82;;;4.32;;
53287;SDS011;39172;45.550;12.072;2023-05-15T09:25:35;4.57;;;4.18;;
53287;SDS011;39172;45.550;12.072;2023-05-15T09:31:39;5.15;;;4.40;;
53287;SDS011;39172;45.550;12.072;2023-05-15T09:37:56;4.50;;;3.50;;
53287;SDS011;39172;45.550;12.072;2023-05-15T09:43:57;4.33;;;3.40;;
53287;SDS011;39172;45.550;12.072;2023-05-15T09:49:58;3.40;;;3.10;;
53287;SDS011;39172;45.550;12.072;2023-05-15T09:56:00;3.90;;;3.38;;
53287;SDS011;39172;45.550;12.072;2023-05-15T10:02:02;2.88;;;2.40;;
53287;SDS011;39172;45.550;12.072;2023-05-15T10:08:04;3.10;;;2.20;;
53287;SDS011;39172;45.550;12.072;2023-05-15T10:14:08;2.42;;;2.10;;
53287;SDS011;39172;45.550;12.072;2023-05-15T10:20:10;2.97;;;1.92;;
53287;SDS011;39172;45.550;12.072;2023-05-15T10:32:32;2.58;;;1.60;;
53287;SDS011;39172;45.550;12.072;2023-05-15T10:38:36;1.58;;;1.27;;
53287;SDS011;39172;45.550;12.072;2023-05-15T10:44:38;2.10;;;1.90;;
53287;SDS011;39172;45.550;12.072;2023-05-15T10:50:47;1.98;;;1.70;;
53287;SDS011;39172;45.550;12.072;2023-05-15T10:56:48;1.63;;;1.52;;
53287;SDS011;39172;45.550;12.072;2023-05-15T11:02:53;2.05;;;1.77;;
53287;SDS011;39172;45.550;12.072;2023-05-15T11:15:17;1.63;;;1.52;;
53287;SDS011;39172;45.550;12.072;2023-05-15T11:21:19;2.50;;;2.30;;
53287;SDS011;39172;45.550;12.072;2023-05-15T11:27:30;2.90;;;2.60;;
53287;SDS011;39172;45.550;12.072;2023-05-15T11:33:40;1.70;;;1.42;;
53287;SDS011;39172;45.550;12.072;2023-05-15T11:39:44;1.45;;;1.30;;
53287;SDS011;39172;45.550;12.072;2023-05-15T11:45:46;1.50;;;1.40;;
53287;SDS011;39172;45.550;12.072;2023-05-15T11:51:48;1.75;;;1.50;;
53287;SDS011;39172;45.550;12.072;2023-05-15T11:57:50;2.78;;;1.52;;
53287;SDS011;39172;45.550;12.072;2023-05-15T12:03:51;2.45;;;1.80;;
53287;SDS011;39172;45.550;12.072;2023-05-15T12:09:58;2.03;;;1.48;;
53287;SDS011;39172;45.550;12.072;2023-05-15T12:16:04;1.95;;;1.30;;
53287;SDS011;39172;45.550;12.072;2023-05-15T12:22:06;1.17;;;1.05;;
53287;SDS011;39172;45.550;12.072;2023-05-15T12:28:08;1.33;;;1.20;;
53287;SDS011;39172;45.550;12.072;2023-05-15T12:34:09;2.28;;;1.70;;
53287;SDS011;39172;45.550;12.072;2023-05-15T12:40:10;1.58;;;1.40;;
53287;SDS011;39172;45.550;12.072;2023-05-15T12:46:12;1.40;;;1.30;;
53287;SDS011;39172;45.550;12.072;2023-05-15T12:52:13;1.40;;;1.30;;
53287;SDS011;39172;45.550;12.072;2023-05-15T12:58:14;1.35;;;1.20;;
53287;SDS011;39172;45.550;12.072;2023-05-15T13:04:18;1.42;;;1.30;;
53287;SDS011;39172;45.550;12.072;2023-05-15T13:10:23;1.55;;;1.17;;
53287;SDS011;39172;45.550;12.072;2023-05-15T13:16:26;1.23;;;1.10;;
53287;SDS011;39172;45.550;12.072;2023-05-15T13:22:29;2.55;;;1.40;;
53287;SDS011;39172;45.550;12.072;2023-05-15T13:28:30;1.63;;;1.52;;
53287;SDS011;39172;45.550;12.072;2023-05-15T13:34:31;1.45;;;1.35;;
53287;SDS011;39172;45.550;12.072;2023-05-15T13:40:32;2.20;;;1.20;;
53287;SDS011;39172;45.550;12.072;2023-05-15T13:46:35;1.45;;;1.15;;
53287;SDS011;39172;45.550;12.072;2023-05-15T13:52:37;1.25;;;1.10;;
53287;SDS011;39172;45.550;12.072;2023-05-15T13:58:38;1.42;;;1.00;;
53287;SDS011;39172;45.550;12.072;2023-05-15T14:04:42;1.20;;;0.98;;
53287;SDS011;39172;45.550;12.072;2023-05-15T14:10:43;0.90;;;0.90;;
53287;SDS011;39172;45.550;12.072;2023-05-15T14:16:44;1.00;;;0.90;;
53287;SDS011;39172;45.550;12.072;2023-05-15T14:22:45;1.23;;;0.90;;
53287;SDS011;39172;45.550;12.072;2023-05-15T14:28:46;0.80;;;0.80;;
53287;SDS011;39172;45.550;12.072;2023-05-15T14:34:47;1.05;;;0.82;;
53287;SDS011;39172;45.550;12.072;2023-05-15T14:40:49;1.10;;;0.70;;
53287;SDS011;39172;45.550;12.072;2023-05-15T14:53:07;1.08;;;0.77;;
53287;SDS011;39172;45.550;12.072;2023-05-15T14:59:08;0.80;;;0.80;;
53287;SDS011;39172;45.550;12.072;2023-05-15T15:05:12;1.63;;;0.70;;
53287;SDS011;39172;45.550;12.072;2023-05-15T15:11:13;0.98;;;0.80;;
53287;SDS011;39172;45.550;12.072;2023-05-15T15:17:14;0.88;;;0.80;;
53287;SDS011;39172;45.550;12.072;2023-05-15T15:23:15;1.13;;;0.70;;
53287;SDS011;39172;45.550;12.072;2023-05-15T15:29:17;1.00;;;0.80;;
53287;SDS011;39172;45.550;12.072;2023-05-15T15:35:18;0.82;;;0.80;;
53287;SDS011;39172;45.550;12.072;2023-05-15T15:41:19;0.95;;;0.90;;
53287;SDS011;39172;45.550;12.072;2023-05-15T15:47:25;0.70;;;0.70;;
53287;SDS011;39172;45.550;12.072;2023-05-15T15:53:32;0.82;;;0.80;;
53287;SDS011;39172;45.550;12.072;2023-05-15T15:59:34;0.85;;;0.80;;
53287;SDS011;39172;45.550;12.072;2023-05-15T16:05:35;0.77;;;0.70;;
53287;SDS011;39172;45.550;12.072;2023-05-15T16:11:39;0.70;;;0.70;;
53287;SDS011;39172;45.550;12.072;2023-05-15T16:17:49;0.57;;;0.50;;
53287;SDS011;39172;45.550;12.072;2023-05-15T16:23:50;0.70;;;0.68;;
53287;SDS011;39172;45.550;12.072;2023-05-15T16:29:53;0.70;;;0.70;;
53287;SDS011;39172;45.550;12.072;2023-05-15T16:35:57;0.60;;;0.60;;
53287;SDS011;39172;45.550;12.072;2023-05-15T16:41:58;0.68;;;0.60;;
53287;SDS011;39172;45.550;12.072;2023-05-15T16:48:02;1.25;;;0.70;;
53287;SDS011;39172;45.550;12.072;2023-05-15T16:54:17;1.00;;;0.70;;
53287;SDS011;39172;45.550;12.072;2023-05-15T17:00:20;0.77;;;0.70;;
53287;SDS011;39172;45.550;12.072;2023-05-15T17:06:23;1.17;;;0.70;;
53287;SDS011;39172;45.550;12.072;2023-05-15T17:12:27;1.27;;;0.70;;
53287;SDS011;39172;45.550;12.072;2023-05-15T17:18:28;0.90;;;0.70;;
53287;SDS011;39172;45.550;12.072;2023-05-15T17:24:29;0.68;;;0.60;;
53287;SDS011;39172;45.550;12.072;2023-05-15T17:30:30;1.05;;;0.70;;
53287;SDS011;39172;45.550;12.072;2023-05-15T17:36:31;0.80;;;0.70;;
53287;SDS011;39172;45.550;12.072;2023-05-15T17:42:33;1.30;;;0.75;;
53287;SDS011;39172;45.550;12.072;2023-05-15T17:48:35;0.73;;;0.73;;
53287;SDS011;39172;45.550;12.072;2023-05-15T17:54:36;1.48;;;0.70;;
53287;SDS011;39172;45.550;12.072;2023-05-15T18:00:40;0.60;;;0.60;;
53287;SDS011;39172;45.550;12.072;2023-05-15T18:06:42;1.30;;;0.77;;
53287;SDS011;39172;45.550;12.072;2023-05-15T18:12:43;0.90;;;0.70;;
53287;SDS011;39172;45.550;12.072;2023-05-15T18:18:44;0.82;;;0.80;;
53287;SDS011;39172;45.550;12.072;2023-05-15T18:24:47;1.00;;;0.80;;
53287;SDS011;39172;45.550;12.072;2023-05-15T18:30:51;1.05;;;0.77;;
53287;SDS011;39172;45.550;12.072;2023-05-15T18:36:52;0.90;;;0.75;;
53287;SDS011;39172;45.550;12.072;2023-05-15T18:42:53;1.27;;;1.00;;
53287;SDS011;39172;45.550;12.072;2023-05-15T18:48:55;0.75;;;0.60;;
53287;SDS011;39172;45.550;12.072;2023-05-15T18:54:56;0.80;;;0.50;;
53287;SDS011;39172;45.550;12.072;2023-05-15T19:00:57;0.93;;;0.70;;
53287;SDS011;39172;45.550;12.072;2023-05-15T19:06:58;1.10;;;1.00;;
53287;SDS011;39172;45.550;12.072;2023-05-15T19:12:59;1.13;;;0.80;;
53287;SDS011;39172;45.550;12.072;2023-05-15T19:19:00;1.33;;;1.00;;
53287;SDS011;39172;45.550;12.072;2023-05-15T19:25:01;1.83;;;1.10;;
53287;SDS011;39172;45.550;12.072;2023-05-15T19:31:02;1.48;;;1.10;;
53287;SDS011;39172;45.550;12.072;2023-05-15T19:37:04;1.20;;;1.10;;
53287;SDS011;39172;45.550;12.072;2023-05-15T19:43:05;1.10;;;0.93;;
53287;SDS011;39172;45.550;12.072;2023-05-15T19:49:07;1.50;;;1.00;;
53287;SDS011;39172;45.550;12.072;2023-05-15T19:55:13;1.33;;;1.10;;
53287;SDS011;39172;45.550;12.072;2023-05-15T20:01:14;1.60;;;1.05;;
53287;SDS011;39172;45.550;12.072;2023-05-15T20:07:15;1.63;;;1.02;;
53287;SDS011;39172;45.550;12.072;2023-05-15T20:13:16;1.48;;;1.10;;
53287;SDS011;39172;45.550;12.072;2023-05-15T20:19:17;1.20;;;1.00;;
53287;SDS011;39172;45.550;12.072;2023-05-15T20:25:21;1.10;;;1.00;;
53287;SDS011;39172;45.550;12.072;2023-05-15T20:31:28;1.73;;;1.45;;
53287;SDS011;39172;45.550;12.072;2023-05-15T20:37:29;1.67;;;1.40;;
53287;SDS011;39172;45.550;12.072;2023-05-15T20:43:31;2.53;;;2.00;;
53287;SDS011;39172;45.550;12.072;2023-05-15T20:49:32;1.85;;;1.35;;
53287;SDS011;39172;45.550;12.072;2023-05-15T20:55:33;1.33;;;1.15;;
53287;SDS011;39172;45.550;12.072;2023-05-15T21:01:35;1.75;;;1.48;;
53287;SDS011;39172;45.550;12.072;2023-05-15T21:07:36;1.73;;;1.40;;
53287;SDS011;39172;45.550;12.072;2023-05-15T21:13:39;1.58;;;1.23;;
53287;SDS011;39172;45.550;12.072;2023-05-15T21:19:41;1.95;;;1.58;;
53287;SDS011;39172;45.550;12.072;2023-05-15T21:25:42;1.70;;;1.60;;
53287;SDS011;39172;45.550;12.072;2023-05-15T21:31:43;2.10;;;1.48;;
53287;SDS011;39172;45.550;12.072;2023-05-15T21:37:44;1.90;;;1.60;;
53287;SDS011;39172;45.550;12.072;2023-05-15T21:43:45;2.22;;;1.60;;
53287;SDS011;39172;45.550;12.072;2023-05-15T21:49:46;1.88;;;1.33;;
53287;SDS011;39172;45.550;12.072;2023-05-15T21:55:47;1.60;;;1.15;;
53287;SDS011;39172;45.550;12.072;2023-05-15T22:01:51;1.10;;;1.00;;
53287;SDS011;39172;45.550;12.072;2023-05-15T22:07:52;1.40;;;1.10;;
53287;SDS011;39172;45.550;12.072;2023-05-15T22:13:53;1.40;;;1.30;;
53287;SDS011;39172;45.550;12.072;2023-05-15T22:19:56;1.45;;;1.27;;
53287;SDS011;39172;45.550;12.072;2023-05-15T22:26:07;1.90;;;1.55;;
53287;SDS011;39172;45.550;12.072;2023-05-15T22:32:07;2.92;;;1.90;;
53287;SDS011;39172;45.550;12.072;2023-05-15T22:38:08;2.95;;;1.90;;
53287;SDS011;39172;45.550;12.072;2023-05-15T22:44:09;2.35;;;1.90;;
53287;SDS011;39172;45.550;12.072;2023-05-15T22:50:10;2.97;;;2.00;;
53287;SDS011;39172;45.550;12.072;2023-05-15T22:56:11;1.98;;;1.63;;
53287;SDS011;39172;45.550;12.072;2023-05-15T23:02:12;1.80;;;1.50;;
53287;SDS011;39172;45.550;12.072;2023-05-15T23:08:13;2.95;;;1.83;;
53287;SDS011;39172;45.550;12.072;2023-05-15T23:14:14;2.10;;;1.70;;
53287;SDS011;39172;45.550;12.072;2023-05-15T23:20:18;2.30;;;1.65;;
53287;SDS011;39172;45.550;12.072;2023-05-15T23:26:19;2.13;;;1.70;;
53287;SDS011;39172;45.550;12.072;2023-05-15T23:32:20;1.83;;;1.48;;
53287;SDS011;39172;45.550;12.072;2023-05-15T23:38:21;1.50;;;1.25;;
53287;SDS011;39172;45.550;12.072;2023-05-15T23:44:23;1.80;;;1.25;;
53287;SDS011;39172;45.550;12.072;2023-05-15T23:50:24;1.20;;;1.10;;
53287;SDS011;39172;45.550;12.072;2023-05-15T23:56:25;1.45;;;1.10;;
